createdAt,value
2018-01-15T00:01:03.992Z,5.10
2018-01-15T00:03:37.954Z,5.10
2018-01-15T00:06:12.083Z,5.20
2018-01-15T00:08:46.229Z,5.30
2018-01-15T00:11:20.342Z,5.30
2018-01-15T00:13:54.314Z,5.20
2018-01-15T00:16:28.938Z,5.20
2018-01-15T00:19:03.279Z,5.20
2018-01-15T00:21:37.279Z,5.30
2018-01-15T00:24:11.322Z,5.20
2018-01-15T00:26:45.121Z,5.30
2018-01-15T00:29:18.975Z,5.30
2018-01-15T00:31:53.025Z,5.30
2018-01-15T00:34:27.103Z,5.10
2018-01-15T00:37:00.848Z,5.10
2018-01-15T00:39:34.714Z,5.20
2018-01-15T00:42:08.956Z,5.20
2018-01-15T00:44:43.057Z,5.30
2018-01-15T00:47:17.270Z,5.20
2018-01-15T00:49:51.396Z,5.30
2018-01-15T00:52:26.203Z,5.30
2018-01-15T00:55:00.365Z,5.30
2018-01-15T00:57:34.478Z,5.30
2018-01-15T01:00:08.442Z,5.20
2018-01-15T01:02:43.528Z,5.10
2018-01-15T01:05:18.003Z,5.10
2018-01-15T01:07:52.060Z,5.20
2018-01-15T01:10:26.178Z,5.10
2018-01-15T01:13:00.230Z,5.10
2018-01-15T01:15:34.398Z,5.10
2018-01-15T01:18:08.230Z,5.30
2018-01-15T01:20:43.030Z,5.20
2018-01-15T01:23:17.010Z,5.10
2018-01-15T01:25:51.103Z,5.10
2018-01-15T01:28:25.331Z,5.00
2018-01-15T01:30:59.351Z,5.10
2018-01-15T01:33:33.463Z,5.00
2018-01-15T01:36:07.605Z,5.00
2018-01-15T01:38:41.587Z,5.10
2018-01-15T01:41:15.778Z,5.20
2018-01-15T01:43:49.902Z,5.10
2018-01-15T01:46:23.823Z,5.10
2018-01-15T01:48:59.662Z,5.20
2018-01-15T01:51:33.674Z,5.10
2018-01-15T01:54:07.938Z,5.00
2018-01-15T01:56:42.006Z,5.00
2018-01-15T01:59:16.163Z,5.10
2018-01-15T02:01:50.168Z,5.10
2018-01-15T02:04:24.243Z,5.10
2018-01-15T02:06:58.231Z,5.00
2018-01-15T02:09:32.307Z,4.90
2018-01-15T02:12:06.278Z,4.90
2018-01-15T02:14:40.286Z,5.10
2018-01-15T02:17:14.437Z,5.10
2018-01-15T02:19:48.506Z,5.00
2018-01-15T02:22:22.611Z,4.90
2018-01-15T02:24:56.747Z,5.10
2018-01-15T02:27:30.791Z,5.10
2018-01-15T02:30:04.768Z,4.90
2018-01-15T02:32:38.671Z,4.80
2018-01-15T02:35:12.892Z,4.80
2018-01-15T02:37:47.508Z,4.80
2018-01-15T02:40:21.623Z,4.80
2018-01-15T02:42:55.844Z,4.80
2018-01-15T02:45:29.885Z,4.80
2018-01-15T02:48:03.867Z,4.80
2018-01-15T02:50:37.991Z,4.80
2018-01-15T02:53:11.974Z,4.80
2018-01-15T02:55:45.925Z,4.90
2018-01-15T02:58:19.941Z,5.00
2018-01-15T03:00:54.020Z,5.00
2018-01-15T03:03:28.127Z,4.80
2018-01-15T03:06:02.330Z,4.90
2018-01-15T03:08:36.496Z,4.80
2018-01-15T03:11:10.475Z,4.80
2018-01-15T03:13:44.615Z,4.90
2018-01-15T03:16:18.625Z,4.90
2018-01-15T03:18:52.742Z,4.90
2018-01-15T03:21:26.825Z,4.90
2018-01-15T03:24:00.935Z,5.00
2018-01-15T03:26:35.047Z,5.10
2018-01-15T03:29:09.146Z,5.00
2018-01-15T03:31:43.238Z,5.00
2018-01-15T03:34:17.395Z,5.00
2018-01-15T03:36:51.278Z,5.00
2018-01-15T03:39:25.203Z,5.00
2018-01-15T03:41:59.102Z,5.10
2018-01-15T03:44:32.991Z,5.00
2018-01-15T03:47:07.059Z,5.10
2018-01-15T03:49:41.179Z,5.20
2018-01-15T03:52:15.155Z,5.20
2018-01-15T03:54:50.114Z,5.10
2018-01-15T03:57:24.175Z,5.10
2018-01-15T03:59:59.747Z,5.10
2018-01-15T04:02:33.968Z,5.10
2018-01-15T04:05:08.187Z,5.20
2018-01-15T04:07:42.435Z,5.30
2018-01-15T04:10:16.635Z,5.40
2018-01-15T04:12:50.551Z,5.30
2018-01-15T04:15:24.627Z,5.30
2018-01-15T04:17:58.672Z,5.20
2018-01-15T04:20:32.638Z,5.30
2018-01-15T04:23:07.302Z,5.30
2018-01-15T04:25:41.215Z,5.30
2018-01-15T04:28:15.110Z,5.30
2018-01-15T04:30:49.231Z,5.30
2018-01-15T04:33:23.451Z,5.30
2018-01-15T04:35:57.349Z,5.30
2018-01-15T04:38:31.467Z,5.20
2018-01-15T04:41:05.442Z,5.30
2018-01-15T04:43:40.171Z,5.40
2018-01-15T04:46:14.295Z,5.40
2018-01-15T04:48:48.329Z,5.50
2018-01-15T04:51:22.520Z,5.50
2018-01-15T04:53:56.719Z,5.40
2018-01-15T04:56:30.843Z,5.50
2018-01-15T04:59:05.688Z,5.50
2018-01-15T05:01:39.923Z,5.50
2018-01-15T05:04:13.982Z,5.50
2018-01-15T05:06:48.935Z,5.40
2018-01-15T05:09:23.285Z,5.30
2018-01-15T05:11:57.263Z,5.50
2018-01-15T05:14:31.415Z,5.40
2018-01-15T05:17:05.517Z,5.40
2018-01-15T05:19:39.267Z,5.50
2018-01-15T05:22:13.231Z,5.40
2018-01-15T05:24:47.960Z,5.40
2018-01-15T05:27:21.933Z,5.40
2018-01-15T05:29:56.055Z,5.40
2018-01-15T05:32:30.092Z,5.40
2018-01-15T05:35:04.820Z,5.50
2018-01-15T05:37:38.647Z,5.50
2018-01-15T05:40:12.635Z,5.40
2018-01-15T05:42:46.498Z,5.40
2018-01-15T05:45:20.527Z,5.40
2018-01-15T05:47:54.462Z,5.40
2018-01-15T05:50:29.088Z,5.40
2018-01-15T05:53:03.917Z,5.40
2018-01-15T05:55:37.679Z,5.40
2018-01-15T05:58:13.275Z,5.50
2018-01-15T06:00:47.330Z,5.50
2018-01-15T06:03:21.467Z,5.50
2018-01-15T06:05:55.575Z,5.40
2018-01-15T06:08:30.286Z,5.40
2018-01-15T06:11:04.419Z,5.40
2018-01-15T06:13:38.567Z,5.50
2018-01-15T06:16:12.573Z,5.40
2018-01-15T06:18:46.660Z,5.40
2018-01-15T06:21:20.855Z,5.40
2018-01-15T06:23:55.091Z,5.60
2018-01-15T06:26:29.332Z,5.50
2018-01-15T06:29:04.059Z,5.60
2018-01-15T06:31:38.130Z,5.60
2018-01-15T06:34:12.043Z,5.50
2018-01-15T06:36:46.193Z,5.50
2018-01-15T06:39:20.076Z,5.60
2018-01-15T06:41:54.083Z,5.50
2018-01-15T06:44:28.812Z,5.60
2018-01-15T06:47:03.055Z,5.60
2018-01-15T06:49:37.018Z,5.50
2018-01-15T06:52:11.871Z,5.50
2018-01-15T06:54:45.980Z,5.40
2018-01-15T06:57:20.199Z,5.50
2018-01-15T06:59:54.239Z,5.50
2018-01-15T07:02:28.120Z,5.50
2018-01-15T07:05:02.460Z,5.50
2018-01-15T07:07:36.420Z,5.50
2018-01-15T07:10:10.590Z,5.50
2018-01-15T07:12:44.576Z,5.50
2018-01-15T07:15:19.429Z,5.70
2018-01-15T07:17:53.542Z,5.70
2018-01-15T07:20:27.549Z,5.60
2018-01-15T07:23:01.531Z,5.60
2018-01-15T07:25:36.772Z,5.60
2018-01-15T07:28:10.888Z,5.60
2018-01-15T07:30:45.112Z,5.60
2018-01-15T07:33:20.007Z,5.70
2018-01-15T07:35:54.176Z,5.70
2018-01-15T07:38:28.334Z,5.60
2018-01-15T07:41:02.372Z,5.60
2018-01-15T07:43:36.227Z,5.70
2018-01-15T07:46:11.034Z,5.70
2018-01-15T07:48:44.920Z,5.70
2018-01-15T07:51:19.156Z,5.80
2018-01-15T07:53:53.371Z,5.70
2018-01-15T07:56:27.359Z,5.70
2018-01-15T07:59:01.571Z,5.80
2018-01-15T08:01:35.788Z,5.80
2018-01-15T08:04:09.999Z,5.80
2018-01-15T08:06:44.040Z,5.70
2018-01-15T08:09:18.215Z,5.80
2018-01-15T08:11:52.272Z,5.80
2018-01-15T08:14:26.351Z,5.80
2018-01-15T08:17:00.162Z,5.80
2018-01-15T08:19:34.730Z,5.90
2018-01-15T08:22:08.927Z,5.90
2018-01-15T08:24:42.932Z,5.80
2018-01-15T08:27:16.842Z,5.90
2018-01-15T08:29:50.828Z,5.80
2018-01-15T08:32:24.944Z,5.90
2018-01-15T08:34:58.683Z,5.90
2018-01-15T08:37:32.682Z,5.80
2018-01-15T08:40:06.688Z,5.80
2018-01-15T08:42:40.928Z,5.80
2018-01-15T08:45:14.924Z,5.90
2018-01-15T08:47:49.026Z,5.90
2018-01-15T08:50:23.150Z,5.90
2018-01-15T08:52:57.063Z,5.90
2018-01-15T08:55:31.161Z,5.80
2018-01-15T08:58:05.172Z,5.80
2018-01-15T09:00:39.194Z,5.90
2018-01-15T09:03:13.276Z,5.90
2018-01-15T09:05:48.227Z,5.90
2018-01-15T09:08:22.340Z,5.90
2018-01-15T09:10:56.350Z,5.90
2018-01-15T09:13:30.568Z,5.90
2018-01-15T09:16:04.485Z,5.90
2018-01-15T09:18:38.659Z,5.80
2018-01-15T09:21:12.592Z,5.80
2018-01-15T09:23:46.511Z,5.90
2018-01-15T09:26:20.628Z,5.90
2018-01-15T09:28:54.738Z,5.90
2018-01-15T09:31:28.611Z,5.90
2018-01-15T09:34:02.724Z,6.00
2018-01-15T09:36:36.661Z,5.90
2018-01-15T09:39:10.510Z,5.80
2018-01-15T09:41:44.839Z,5.90
2018-01-15T09:44:18.950Z,6.00
2018-01-15T09:46:52.686Z,5.90
2018-01-15T09:49:26.583Z,5.90
2018-01-15T09:52:00.571Z,6.00
2018-01-15T09:54:34.683Z,5.90
2018-01-15T09:57:09.540Z,5.90
2018-01-15T09:59:43.548Z,5.90
2018-01-15T10:02:17.795Z,5.90
2018-01-15T10:04:51.801Z,6.00
2018-01-15T10:07:26.504Z,6.00
2018-01-15T10:10:00.516Z,6.00
2018-01-15T10:12:34.656Z,5.80
2018-01-15T10:15:08.641Z,5.90
2018-01-15T10:17:42.519Z,5.90
2018-01-15T10:20:17.371Z,6.00
2018-01-15T10:22:52.025Z,5.90
2018-01-15T10:25:25.908Z,5.90
2018-01-15T10:27:59.948Z,6.00
2018-01-15T10:30:33.927Z,6.10
2018-01-15T10:33:08.040Z,6.00
2018-01-15T10:35:42.188Z,6.10
2018-01-15T10:38:16.368Z,6.10
2018-01-15T10:40:50.515Z,6.00
2018-01-15T10:43:24.591Z,6.00
2018-01-15T10:45:58.835Z,6.10
2018-01-15T10:48:33.435Z,6.00
2018-01-15T10:51:08.295Z,6.00
2018-01-15T10:53:43.121Z,6.00
2018-01-15T10:56:17.199Z,6.00
2018-01-15T10:58:51.011Z,6.00
2018-01-15T11:01:28.059Z,6.00
2018-01-15T11:04:02.666Z,6.10
2018-01-15T11:06:36.865Z,6.00
2018-01-15T11:09:10.870Z,6.00
2018-01-15T11:11:45.239Z,6.00
2018-01-15T11:14:19.050Z,6.00
2018-01-15T11:16:53.177Z,6.00
2018-01-15T11:19:27.327Z,6.00
2018-01-15T11:22:02.128Z,6.00
2018-01-15T11:24:36.367Z,6.00
2018-01-15T11:27:10.355Z,6.00
2018-01-15T11:29:44.462Z,6.00
2018-01-15T11:32:18.603Z,5.90
2018-01-15T11:34:52.693Z,5.90
2018-01-15T11:37:27.524Z,6.10
2018-01-15T11:40:01.659Z,6.10
2018-01-15T11:42:35.631Z,6.10
2018-01-15T11:45:09.859Z,6.20
2018-01-15T11:47:44.082Z,6.10
2018-01-15T11:50:17.880Z,6.10
2018-01-15T11:52:51.922Z,6.20
2018-01-15T11:55:25.932Z,6.20
2018-01-15T11:58:00.046Z,6.10
2018-01-15T12:00:33.954Z,6.10
2018-01-15T12:03:08.015Z,6.20
2018-01-15T12:05:42.253Z,6.20
2018-01-15T12:08:16.390Z,6.10
2018-01-15T12:10:50.251Z,6.10
2018-01-15T12:13:24.309Z,6.20
2018-01-15T12:15:58.218Z,6.20
2018-01-15T12:18:32.920Z,6.20
2018-01-15T12:21:07.058Z,6.10
2018-01-15T12:23:41.911Z,6.20
2018-01-15T12:26:15.723Z,6.30
2018-01-15T12:28:49.914Z,6.20
2018-01-15T12:31:23.995Z,6.20
2018-01-15T12:33:58.724Z,6.20
2018-01-15T12:36:32.939Z,6.20
2018-01-15T12:39:07.999Z,6.20
2018-01-15T12:41:41.907Z,6.30
2018-01-15T12:44:16.607Z,6.20
2018-01-15T12:46:50.936Z,6.20
2018-01-15T12:49:25.751Z,6.30
2018-01-15T12:51:59.764Z,6.30
2018-01-15T12:54:33.904Z,6.30
2018-01-15T12:57:08.083Z,6.40
2018-01-15T12:59:42.208Z,6.40
2018-01-15T13:02:16.424Z,6.40
2018-01-15T13:04:50.356Z,6.40
2018-01-15T13:07:36.451Z,6.40
2018-01-15T13:10:11.100Z,6.60
2018-01-15T13:12:44.983Z,6.50
2018-01-15T13:15:19.102Z,6.40
2018-01-15T13:17:52.903Z,6.40
2018-01-15T13:20:27.834Z,6.40
2018-01-15T13:23:01.920Z,6.40
2018-01-15T13:25:36.163Z,6.40
2018-01-15T13:28:10.839Z,6.50
2018-01-15T13:30:44.746Z,6.40
2018-01-15T13:33:18.706Z,6.50
2018-01-15T13:35:52.717Z,6.50
2018-01-15T13:38:26.728Z,6.50
2018-01-15T13:41:00.816Z,6.50
2018-01-15T13:43:34.827Z,6.60
2018-01-15T13:46:08.866Z,6.50
2018-01-15T13:48:43.547Z,6.50
2018-01-15T13:51:17.679Z,6.50
2018-01-15T13:53:51.610Z,6.50
2018-01-15T13:56:25.695Z,6.40
2018-01-15T13:59:00.553Z,6.40
2018-01-15T14:01:34.671Z,6.40
2018-01-15T14:04:08.627Z,6.40
2018-01-15T14:06:42.759Z,6.50
2018-01-15T14:09:17.005Z,6.50
2018-01-15T14:11:51.118Z,6.40
2018-01-15T14:14:25.231Z,6.40
2018-01-15T14:16:59.241Z,6.40
2018-01-15T14:19:33.359Z,6.40
2018-01-15T14:22:07.443Z,6.40
2018-01-15T14:24:41.458Z,6.50
2018-01-15T14:27:15.693Z,6.40
2018-01-15T14:29:49.580Z,6.50
2018-01-15T14:32:23.822Z,6.60
2018-01-15T14:34:57.725Z,6.50
2018-01-15T14:37:31.736Z,6.40
2018-01-15T14:40:06.000Z,6.50
2018-01-15T14:42:39.940Z,6.40
2018-01-15T14:45:13.864Z,6.40
2018-01-15T14:47:48.060Z,6.40
2018-01-15T14:50:22.203Z,6.40
2018-01-15T14:52:56.618Z,6.40
2018-01-15T14:55:31.345Z,6.60
2018-01-15T14:58:05.540Z,6.50
2018-01-15T15:00:39.523Z,6.60
2018-01-15T15:03:13.568Z,6.60
2018-01-15T15:05:47.467Z,6.60
2018-01-15T15:08:21.675Z,6.60
2018-01-15T15:10:55.896Z,6.50
2018-01-15T15:13:29.934Z,6.50
2018-01-15T15:16:04.254Z,6.60
2018-01-15T15:18:39.058Z,6.60
2018-01-15T15:21:13.296Z,6.60
2018-01-15T15:23:47.354Z,6.70
2018-01-15T15:26:21.278Z,6.70
2018-01-15T15:28:56.116Z,6.70
2018-01-15T15:31:30.058Z,6.70
2018-01-15T15:34:03.962Z,6.70
2018-01-15T15:36:38.763Z,6.80
2018-01-15T15:39:13.593Z,6.80
2018-01-15T15:41:47.841Z,6.70
2018-01-15T15:44:21.919Z,6.80
2018-01-15T15:46:56.378Z,6.80
2018-01-15T15:49:30.355Z,6.70
2018-01-15T15:52:04.364Z,6.80
2018-01-15T15:54:38.251Z,6.80
2018-01-15T15:57:13.203Z,6.70
2018-01-15T15:59:47.923Z,6.70
2018-01-15T16:02:22.048Z,6.70
2018-01-15T16:04:56.055Z,6.80
2018-01-15T16:07:30.267Z,6.80
2018-01-15T16:10:04.484Z,6.80
2018-01-15T16:12:38.674Z,6.80
2018-01-15T16:15:12.846Z,6.90
2018-01-15T16:17:47.061Z,6.70
2018-01-15T16:20:21.076Z,6.80
2018-01-15T16:22:58.728Z,6.80
2018-01-15T16:25:33.360Z,6.80
2018-01-15T16:28:07.580Z,6.80
2018-01-15T16:30:41.819Z,6.80
2018-01-15T16:33:15.932Z,6.70
2018-01-15T16:35:49.995Z,6.80
2018-01-15T16:38:24.033Z,6.80
2018-01-15T16:40:57.936Z,6.80
2018-01-15T16:43:32.146Z,6.70
2018-01-15T16:46:06.459Z,6.80
2018-01-15T16:48:40.585Z,6.80
2018-01-15T16:51:14.830Z,6.80
2018-01-15T16:53:48.914Z,6.80
2018-01-15T16:56:22.920Z,6.90
2018-01-15T16:58:57.127Z,6.90
2018-01-15T17:01:31.351Z,6.90
2018-01-15T17:04:05.150Z,7.00
2018-01-15T17:06:39.363Z,6.90
2018-01-15T17:09:13.621Z,6.90
2018-01-15T17:11:47.599Z,6.90
2018-01-15T17:14:21.387Z,6.90
2018-01-15T17:16:56.235Z,6.90
2018-01-15T17:19:30.296Z,7.00
2018-01-15T17:22:04.283Z,6.90
2018-01-15T17:24:38.401Z,7.00
2018-01-15T17:27:12.479Z,7.00
2018-01-15T17:29:46.498Z,7.00
2018-01-15T17:32:21.364Z,7.00
2018-01-15T17:34:56.388Z,7.10
2018-01-15T17:37:30.372Z,7.00
2018-01-15T17:40:04.370Z,7.10
2018-01-15T17:42:38.603Z,7.00
2018-01-15T17:45:12.807Z,7.00
2018-01-15T17:47:46.818Z,7.00
2018-01-15T17:50:21.726Z,7.00
2018-01-15T17:52:55.858Z,7.00
2018-01-15T17:55:30.106Z,7.10
2018-01-15T17:58:04.191Z,7.10
2018-01-15T18:00:39.092Z,7.10
2018-01-15T18:03:13.412Z,7.10
2018-01-15T18:05:47.377Z,7.90
2018-01-15T18:08:21.443Z,7.10
2018-01-15T18:10:55.635Z,7.10
2018-01-15T18:13:29.772Z,7.10
2018-01-15T18:16:03.891Z,7.20
2018-01-15T18:18:38.012Z,7.20
2018-01-15T18:21:11.662Z,7.10
2018-01-15T18:23:45.471Z,7.10
2018-01-15T18:26:19.381Z,7.10
2018-01-15T18:28:53.648Z,7.20
2018-01-15T18:31:28.123Z,7.20
2018-01-15T18:34:02.343Z,7.20
2018-01-15T18:36:36.547Z,7.20
2018-01-15T18:39:10.455Z,7.20
2018-01-15T18:41:44.143Z,7.20
2018-01-15T18:44:19.019Z,7.20
2018-01-15T18:46:52.850Z,7.20
2018-01-15T18:49:26.879Z,7.20
2018-01-15T18:52:00.594Z,7.20
2018-01-15T18:54:34.444Z,7.20
2018-01-15T18:57:08.504Z,7.10
2018-01-15T18:59:42.514Z,7.10
2018-01-15T19:02:16.548Z,7.20
2018-01-15T19:04:50.387Z,7.10
2018-01-15T19:07:25.635Z,7.20
2018-01-15T19:09:59.753Z,7.20
2018-01-15T19:12:34.364Z,7.20
2018-01-15T19:15:08.407Z,7.20
2018-01-15T19:17:42.515Z,7.10
2018-01-15T19:20:16.579Z,7.20
2018-01-15T19:22:50.782Z,7.20
2018-01-15T19:25:24.632Z,7.30
2018-01-15T19:27:58.662Z,7.20
2018-01-15T19:30:32.710Z,7.20
2018-01-15T19:33:06.579Z,7.20
2018-01-15T19:35:46.395Z,7.20
2018-01-15T19:38:21.364Z,7.30
2018-01-15T19:40:56.175Z,7.20
2018-01-15T19:46:44.477Z,7.20
2018-01-15T19:49:24.331Z,7.20
2018-01-15T19:52:04.903Z,7.20
2018-01-15T19:54:44.283Z,7.20
2018-01-15T19:57:24.539Z,7.20
2018-01-15T20:00:04.336Z,7.20
2018-01-15T20:02:43.750Z,7.20
2018-01-15T20:05:24.300Z,7.20
2018-01-15T20:08:03.757Z,7.30
2018-01-15T20:10:53.603Z,7.20
2018-01-15T20:13:27.466Z,7.30
2018-01-15T20:16:01.541Z,7.20
2018-01-15T20:18:35.617Z,7.20
2018-01-15T20:21:09.656Z,7.20
2018-01-15T20:23:43.675Z,7.10
2018-01-15T20:26:17.363Z,7.10
2018-01-15T20:28:51.347Z,7.20
2018-01-15T20:31:25.420Z,7.20
2018-01-15T20:33:59.584Z,7.10
2018-01-15T20:36:33.526Z,7.10
2018-01-15T20:39:07.598Z,7.10
2018-01-15T20:41:41.743Z,7.00
2018-01-15T20:44:16.646Z,7.10
2018-01-15T20:46:50.339Z,7.10
2018-01-15T20:49:25.095Z,7.10
2018-01-15T20:51:59.858Z,7.10
2018-01-15T20:54:34.755Z,7.10
2018-01-15T20:57:09.379Z,7.10
2018-01-15T20:59:44.207Z,7.10
2018-01-15T21:02:18.855Z,7.10
2018-01-15T21:04:53.751Z,7.10
2018-01-15T21:07:27.851Z,7.10
2018-01-15T21:10:01.612Z,7.20
2018-01-15T21:12:35.683Z,7.10
2018-01-15T21:15:09.787Z,7.10
2018-01-15T21:17:43.799Z,7.10
2018-01-15T21:20:17.566Z,7.10
2018-01-15T21:22:51.652Z,7.10
2018-01-15T21:25:25.663Z,7.10
2018-01-15T21:27:59.779Z,7.20
2018-01-15T21:30:33.688Z,7.10
2018-01-15T21:33:07.900Z,7.10
2018-01-15T21:35:41.916Z,7.10
2018-01-15T21:38:15.954Z,7.10
2018-01-15T21:40:49.927Z,7.10
2018-01-15T21:43:24.143Z,7.10
2018-01-15T21:45:58.188Z,7.10
2018-01-15T21:48:32.883Z,7.10
2018-01-15T21:51:06.679Z,7.10
2018-01-15T21:53:40.730Z,7.10
2018-01-15T21:56:14.740Z,7.10
2018-01-15T21:58:48.724Z,7.20
2018-01-15T22:01:22.761Z,7.20
2018-01-15T22:03:56.723Z,7.20
2018-01-15T22:06:30.995Z,7.20
2018-01-15T22:09:04.959Z,7.20
2018-01-15T22:11:39.214Z,7.20
2018-01-15T22:14:13.198Z,7.20
2018-01-15T22:16:47.338Z,7.20
2018-01-15T22:19:21.422Z,7.20
2018-01-15T22:21:55.626Z,7.20
2018-01-15T22:24:29.547Z,7.20
2018-01-15T22:27:03.998Z,7.30
2018-01-15T22:29:38.179Z,7.30
2018-01-15T22:32:12.283Z,7.30
2018-01-15T22:34:46.537Z,7.30
2018-01-15T22:37:21.344Z,7.30
2018-01-15T22:39:56.272Z,7.30
2018-01-15T22:42:30.514Z,7.30
2018-01-15T22:45:04.495Z,7.40
2018-01-15T22:47:38.564Z,7.40
2018-01-15T22:50:12.652Z,7.30
2018-01-15T22:52:46.632Z,7.30
2018-01-15T22:55:20.623Z,7.40
2018-01-15T22:57:55.367Z,7.30
2018-01-15T23:00:29.583Z,7.30
2018-01-15T23:03:03.566Z,7.30
2018-01-15T23:05:37.594Z,7.30
2018-01-15T23:08:11.616Z,7.30
2018-01-15T23:10:45.827Z,7.30
2018-01-15T23:13:20.524Z,7.30
2018-01-15T23:15:54.379Z,7.40
2018-01-15T23:18:29.067Z,7.40
2018-01-15T23:21:03.104Z,7.40
2018-01-15T23:23:37.111Z,7.50
2018-01-15T23:26:11.975Z,7.50
2018-01-15T23:28:46.086Z,7.40
2018-01-15T23:31:20.094Z,7.40
2018-01-15T23:33:54.315Z,7.50
2018-01-15T23:36:28.222Z,7.50
2018-01-15T23:39:02.290Z,7.50
2018-01-15T23:41:36.415Z,7.50
2018-01-15T23:44:10.561Z,7.50
2018-01-15T23:46:44.424Z,7.50
2018-01-15T23:49:18.679Z,7.50
2018-01-15T23:51:52.664Z,7.50
2018-01-15T23:54:33.843Z,7.50
2018-01-15T23:57:07.982Z,7.70
2018-01-15T23:59:41.954Z,7.70
